createdAt,value
2022-08-26T00:01:54.557Z,59.18
2022-08-26T00:04:25.326Z,59.70
2022-08-26T00:06:54.926Z,59.52
2022-08-26T00:09:24.670Z,59.68
2022-08-26T00:11:54.039Z,59.63
2022-08-26T00:14:27.023Z,59.52
2022-08-26T00:16:56.926Z,60.10
2022-08-26T00:19:24.976Z,60.14
2022-08-26T00:21:52.120Z,60.22
2022-08-26T00:24:21.826Z,60.21
2022-08-26T00:26:49.544Z,60.02
2022-08-26T00:29:17.407Z,60.09
2022-08-26T00:31:45.519Z,60.56
2022-08-26T00:34:16.621Z,60.53
2022-08-26T00:36:49.199Z,60.58
2022-08-26T00:39:20.134Z,60.89
2022-08-26T00:41:47.465Z,60.59
2022-08-26T00:44:14.553Z,60.78
2022-08-26T00:46:47.269Z,60.59
2022-08-26T00:49:31.610Z,60.86
2022-08-26T00:52:01.613Z,60.94
2022-08-26T00:54:32.680Z,60.84
2022-08-26T00:57:08.546Z,61.21
2022-08-26T00:59:47.671Z,61.22
2022-08-26T01:02:19.898Z,60.75
2022-08-26T01:04:55.956Z,61.25
2022-08-26T01:07:31.265Z,61.36
2022-08-26T01:10:06.821Z,60.78
2022-08-26T01:12:40.595Z,61.13
2022-08-26T01:15:13.740Z,61.52
2022-08-26T01:17:41.435Z,61.10
2022-08-26T01:20:59.752Z,61.14
2022-08-26T01:23:33.962Z,61.33
2022-08-26T01:26:08.440Z,61.34
2022-08-26T01:28:51.436Z,61.76
2022-08-26T01:31:24.822Z,61.66
2022-08-26T01:34:12.439Z,61.66
2022-08-26T01:36:40.512Z,61.69
2022-08-26T01:39:09.683Z,61.65
2022-08-26T01:41:39.401Z,61.82
2022-08-26T01:44:11.985Z,61.75
2022-08-26T01:46:39.170Z,61.43
2022-08-26T01:49:08.365Z,61.90
2022-08-26T01:51:38.141Z,61.87
2022-08-26T01:54:08.322Z,61.90
2022-08-26T01:56:39.660Z,61.79
2022-08-26T01:59:12.210Z,62.29
2022-08-26T02:01:39.548Z,61.76
2022-08-26T02:04:51.634Z,62.17
2022-08-26T02:07:21.558Z,62.34
2022-08-26T02:09:49.648Z,62.50
2022-08-26T02:12:19.869Z,62.27
2022-08-26T02:14:54.351Z,62.65
2022-08-26T02:17:30.647Z,62.41
2022-08-26T02:19:58.474Z,62.42
2022-08-26T02:22:25.549Z,62.37
2022-08-26T02:24:59.277Z,62.83
2022-08-26T02:27:32.621Z,62.87
2022-08-26T02:30:24.572Z,62.48
2022-08-26T02:32:53.921Z,62.89
2022-08-26T02:35:23.892Z,62.33
2022-08-26T02:37:52.500Z,62.47
2022-08-26T02:40:25.336Z,62.90
2022-08-26T02:42:53.240Z,62.91
2022-08-26T02:45:26.277Z,62.79
2022-08-26T02:47:53.863Z,62.95
2022-08-26T02:50:22.235Z,62.62
2022-08-26T02:52:49.292Z,62.72
2022-08-26T02:55:18.356Z,62.78
2022-08-26T02:57:46.824Z,63.00
2022-08-26T03:00:15.402Z,62.69
2022-08-26T03:02:42.654Z,62.52
2022-08-26T03:05:11.415Z,62.55
2022-08-26T03:07:38.777Z,62.69
2022-08-26T03:10:08.768Z,62.78
2022-08-26T03:12:37.027Z,62.41
2022-08-26T03:15:18.020Z,62.69
2022-08-26T03:17:48.178Z,62.54
2022-08-26T03:20:17.449Z,62.78
2022-08-26T03:22:45.916Z,63.15
2022-08-26T03:25:16.583Z,62.74
2022-08-26T03:27:44.588Z,63.38
2022-08-26T03:30:33.933Z,63.46
2022-08-26T03:33:02.010Z,63.43
2022-08-26T03:35:32.297Z,63.16
2022-08-26T03:38:00.907Z,63.35
2022-08-26T03:40:29.648Z,63.32
2022-08-26T03:42:56.694Z,63.44
2022-08-26T03:45:24.325Z,63.74
2022-08-26T03:47:52.020Z,63.35
2022-08-26T03:50:23.147Z,63.70
2022-08-26T03:52:53.753Z,63.30
2022-08-26T03:55:26.517Z,63.84
2022-08-26T03:57:54.445Z,63.96
2022-08-26T04:00:22.755Z,63.99
2022-08-26T04:02:53.311Z,63.83
2022-08-26T04:05:22.707Z,63.93
2022-08-26T04:07:50.537Z,63.39
2022-08-26T04:10:29.147Z,63.51
2022-08-26T04:13:00.303Z,63.24
2022-08-26T04:15:27.522Z,63.15
2022-08-26T04:17:57.781Z,63.62
2022-08-26T04:20:26.921Z,63.76
2022-08-26T04:22:54.624Z,63.29
2022-08-26T04:25:22.599Z,63.90
2022-08-26T04:27:51.434Z,64.18
2022-08-26T04:30:20.392Z,64.26
2022-08-26T04:32:49.277Z,64.16
2022-08-26T04:35:16.530Z,64.16
2022-08-26T04:37:44.171Z,64.34
2022-08-26T04:40:12.345Z,64.47
2022-08-26T04:42:39.543Z,64.71
2022-08-26T04:45:10.287Z,64.88
2022-08-26T04:47:37.704Z,65.25
2022-08-26T04:50:07.412Z,65.74
2022-08-26T04:52:36.890Z,65.02
2022-08-26T04:55:06.557Z,65.25
2022-08-26T04:57:35.799Z,65.81
2022-08-26T05:00:06.329Z,65.59
2022-08-26T05:02:33.449Z,66.04
2022-08-26T05:05:00.747Z,66.27
2022-08-26T05:07:27.739Z,66.71
2022-08-26T05:09:54.908Z,67.43
2022-08-26T05:12:22.193Z,67.00
2022-08-26T05:14:49.348Z,67.26
2022-08-26T05:17:16.459Z,67.06
2022-08-26T05:19:43.777Z,66.72
2022-08-26T05:22:10.940Z,66.79
2022-08-26T05:24:41.401Z,66.29
2022-08-26T05:27:11.765Z,66.28
2022-08-26T05:29:40.719Z,66.62
2022-08-26T05:32:08.365Z,66.28
2022-08-26T05:34:38.332Z,66.00
2022-08-26T05:37:06.964Z,66.23
2022-08-26T05:39:34.435Z,66.18
2022-08-26T05:42:01.469Z,65.97
2022-08-26T05:44:29.438Z,65.86
2022-08-26T05:47:16.714Z,65.97
2022-08-26T05:49:51.494Z,66.19
2022-08-26T05:52:19.997Z,65.74
2022-08-26T05:54:47.655Z,66.00
2022-08-26T05:57:15.616Z,65.89
2022-08-26T05:59:42.753Z,66.02
2022-08-26T06:02:10.237Z,65.79
2022-08-26T06:04:37.427Z,65.89
2022-08-26T06:07:04.489Z,66.07
2022-08-26T06:09:33.093Z,66.06
2022-08-26T06:12:01.888Z,65.92
2022-08-26T06:14:30.459Z,65.79
2022-08-26T06:16:58.296Z,65.92
2022-08-26T06:19:25.689Z,65.93
2022-08-26T06:22:23.275Z,65.77
2022-08-26T06:25:09.929Z,66.55
2022-08-26T06:27:37.102Z,66.14
2022-08-26T06:30:04.847Z,65.69
2022-08-26T06:32:32.248Z,65.55
2022-08-26T06:34:59.310Z,65.50
2022-08-26T06:37:26.554Z,65.18
2022-08-26T06:39:53.539Z,65.45
2022-08-26T06:42:21.157Z,65.37
2022-08-26T06:44:49.199Z,65.36
2022-08-26T06:47:16.298Z,65.25
2022-08-26T06:49:44.281Z,65.36
2022-08-26T06:52:11.542Z,65.47
2022-08-26T06:54:43.061Z,65.16
2022-08-26T06:57:12.757Z,65.52
2022-08-26T06:59:41.765Z,64.92
2022-08-26T07:02:08.751Z,64.77
2022-08-26T07:04:41.126Z,64.96
2022-08-26T07:07:09.586Z,64.92
2022-08-26T07:09:37.402Z,65.04
2022-08-26T07:12:06.864Z,64.59
2022-08-26T07:14:35.075Z,64.51
2022-08-26T07:17:02.741Z,64.63
2022-08-26T07:19:31.648Z,64.55
2022-08-26T07:22:05.655Z,64.18
2022-08-26T07:24:36.506Z,64.05
2022-08-26T07:27:08.733Z,63.84
2022-08-26T07:29:39.169Z,63.80
2022-08-26T07:32:07.607Z,63.47
2022-08-26T07:34:34.618Z,63.19
2022-08-26T07:37:02.415Z,63.60
2022-08-26T07:39:31.559Z,63.60
2022-08-26T07:42:07.759Z,63.65
2022-08-26T07:44:38.340Z,63.87
2022-08-26T07:47:10.536Z,63.87
2022-08-26T07:49:58.810Z,63.87
2022-08-26T07:52:29.490Z,63.84
2022-08-26T07:55:00.287Z,63.78
2022-08-26T07:57:28.642Z,63.59
2022-08-26T07:59:56.790Z,63.48
2022-08-26T08:02:25.477Z,63.25
2022-08-26T08:04:53.203Z,63.06
2022-08-26T08:07:20.929Z,62.65
2022-08-26T08:09:52.952Z,62.52
2022-08-26T08:12:20.623Z,62.67
2022-08-26T08:14:48.732Z,62.36
2022-08-26T08:17:16.529Z,62.50
2022-08-26T08:19:43.708Z,62.42
2022-08-26T08:22:17.803Z,62.28
2022-08-26T08:24:49.975Z,62.32
2022-08-26T08:27:23.873Z,61.81
2022-08-26T08:29:55.022Z,61.35
2022-08-26T08:32:25.223Z,61.60
2022-08-26T08:34:53.252Z,61.22
2022-08-26T08:37:20.392Z,60.80
2022-08-26T08:39:49.025Z,60.58
2022-08-26T08:42:57.518Z,60.88
2022-08-26T08:45:41.971Z,60.35
2022-08-26T08:48:40.159Z,60.21
2022-08-26T08:51:35.386Z,59.89
2022-08-26T08:54:02.863Z,59.80
2022-08-26T08:56:44.685Z,59.09
2022-08-26T08:59:18.444Z,58.83
2022-08-26T09:02:09.444Z,58.62
2022-08-26T09:05:07.310Z,58.46
2022-08-26T09:07:44.794Z,58.41
2022-08-26T09:10:48.588Z,58.36
2022-08-26T09:13:25.130Z,57.89
2022-08-26T09:16:18.961Z,57.31
2022-08-26T09:19:38.122Z,57.74
2022-08-26T09:22:09.378Z,56.83
2022-08-26T09:24:41.919Z,56.64
2022-08-26T09:27:43.293Z,57.25
2022-08-26T09:30:28.024Z,55.99
2022-08-26T09:33:11.176Z,55.81
2022-08-26T09:35:47.417Z,55.51
2022-08-26T09:38:27.962Z,54.78
2022-08-26T09:41:06.016Z,54.74
2022-08-26T09:43:34.530Z,54.13
2022-08-26T09:46:27.967Z,53.83
2022-08-26T09:48:55.283Z,53.94
2022-08-26T09:51:32.359Z,53.98
2022-08-26T09:54:02.761Z,53.96
2022-08-26T09:56:34.500Z,53.47
2022-08-26T09:59:03.880Z,53.69
2022-08-26T10:01:42.038Z,53.61
2022-08-26T10:04:23.198Z,53.83
2022-08-26T10:07:07.330Z,52.99
2022-08-26T10:09:40.133Z,53.50
2022-08-26T10:12:17.320Z,52.81
2022-08-26T10:14:50.522Z,52.80
2022-08-26T10:17:32.257Z,52.94
2022-08-26T10:20:22.731Z,53.18
2022-08-26T10:23:04.475Z,52.28
2022-08-26T10:25:46.433Z,51.98
2022-08-26T10:29:08.164Z,52.43
2022-08-26T10:32:03.436Z,52.15
2022-08-26T10:34:33.587Z,52.29
2022-08-26T10:37:19.084Z,51.98
2022-08-26T10:40:00.561Z,51.55
2022-08-26T10:42:59.798Z,51.95
2022-08-26T10:45:30.213Z,51.10
2022-08-26T10:48:00.188Z,51.35
2022-08-26T10:50:42.295Z,50.94
2022-08-26T10:53:25.400Z,50.89
2022-08-26T10:56:15.871Z,51.11
2022-08-26T10:58:58.356Z,51.71
2022-08-26T11:01:50.879Z,51.32
2022-08-26T11:04:43.260Z,51.00
2022-08-26T11:07:37.868Z,50.67
2022-08-26T11:10:43.201Z,49.85
2022-08-26T11:13:11.909Z,49.78
2022-08-26T11:15:39.104Z,48.87
2022-08-26T11:18:13.463Z,49.18
2022-08-26T11:20:46.273Z,48.84
2022-08-26T11:23:23.147Z,49.09
2022-08-26T11:25:57.167Z,48.65
2022-08-26T11:28:49.664Z,48.49
2022-08-26T11:31:25.834Z,48.11
2022-08-26T11:33:57.897Z,48.10
2022-08-26T11:36:42.975Z,48.25
2022-08-26T11:39:24.914Z,47.92
2022-08-26T11:41:55.784Z,48.08
2022-08-26T11:44:49.248Z,47.91
2022-08-26T11:47:31.856Z,47.38
2022-08-26T11:50:33.477Z,47.42
2022-08-26T11:53:07.587Z,46.18
2022-08-26T11:55:37.227Z,46.19
2022-08-26T11:58:05.751Z,45.62
2022-08-26T12:01:09.784Z,45.73
2022-08-26T12:03:47.899Z,45.13
2022-08-26T12:06:43.364Z,45.20
2022-08-26T12:09:27.813Z,45.29
2022-08-26T12:12:18.375Z,44.80
2022-08-26T12:14:46.946Z,45.31
2022-08-26T12:17:27.670Z,44.88
2022-08-26T12:19:54.912Z,44.64
2022-08-26T12:22:26.253Z,44.33
2022-08-26T12:25:09.973Z,43.76
2022-08-26T12:27:48.669Z,42.88
2022-08-26T12:30:26.048Z,42.00
2022-08-26T12:33:22.775Z,41.28
2022-08-26T12:35:56.572Z,41.25
2022-08-26T12:38:26.182Z,40.50
2022-08-26T12:40:54.657Z,39.68
2022-08-26T12:43:54.249Z,39.36
2022-08-26T12:46:28.130Z,39.11
2022-08-26T12:49:00.941Z,39.30
2022-08-26T12:51:32.737Z,37.46
2022-08-26T12:54:00.013Z,36.99
2022-08-26T12:56:39.081Z,35.64
2022-08-26T12:59:24.994Z,35.33
2022-08-26T13:01:53.922Z,35.38
2022-08-26T13:04:35.852Z,34.76
2022-08-26T13:07:24.964Z,34.09
2022-08-26T13:09:55.287Z,33.82
2022-08-26T13:12:35.373Z,33.51
2022-08-26T13:15:04.309Z,33.92
2022-08-26T13:17:32.085Z,33.30
2022-08-26T13:20:03.455Z,32.71
2022-08-26T13:22:32.816Z,32.16
2022-08-26T13:24:59.934Z,31.44
2022-08-26T13:27:27.660Z,30.82
2022-08-26T13:29:57.620Z,30.31
2022-08-26T13:32:27.299Z,30.19
2022-08-26T13:34:56.790Z,29.90
2022-08-26T13:37:31.497Z,30.16
2022-08-26T13:40:04.715Z,29.33
2022-08-26T13:42:31.873Z,28.88
2022-08-26T13:44:59.720Z,27.96
2022-08-26T13:47:27.229Z,27.13
2022-08-26T13:49:56.244Z,27.29
2022-08-26T13:52:25.535Z,27.41
2022-08-26T13:54:58.125Z,26.32
2022-08-26T13:57:27.924Z,25.78
2022-08-26T13:59:57.095Z,26.01
2022-08-26T14:02:24.185Z,25.58
2022-08-26T14:04:51.875Z,24.96
2022-08-26T14:07:18.998Z,24.79
2022-08-26T14:09:46.033Z,25.35
2022-08-26T14:12:12.967Z,25.23
2022-08-26T14:14:40.188Z,24.77
2022-08-26T14:17:07.333Z,25.47
2022-08-26T14:19:34.549Z,24.77
2022-08-26T14:22:01.861Z,24.58
2022-08-26T14:24:29.452Z,25.02
2022-08-26T14:26:56.506Z,24.77
2022-08-26T14:29:23.624Z,23.98
2022-08-26T14:31:50.803Z,24.20
2022-08-26T14:34:18.023Z,23.97
2022-08-26T14:36:45.310Z,23.26
2022-08-26T14:39:14.251Z,22.21
2022-08-26T14:41:53.789Z,23.12
2022-08-26T14:44:26.056Z,22.25
2022-08-26T14:46:54.593Z,22.64
2022-08-26T14:49:24.342Z,22.19
2022-08-26T14:51:51.615Z,22.90
2022-08-26T14:54:19.818Z,22.47
2022-08-26T14:56:56.372Z,21.87
2022-08-26T14:59:31.120Z,22.43
2022-08-26T15:02:00.977Z,21.48
2022-08-26T15:04:28.714Z,21.22
2022-08-26T15:06:59.620Z,21.14
2022-08-26T15:09:29.659Z,20.79
2022-08-26T15:11:57.039Z,21.39
2022-08-26T15:14:26.021Z,21.18
2022-08-26T15:16:57.104Z,21.05
2022-08-26T15:19:27.920Z,20.86
2022-08-26T15:21:54.967Z,20.90
2022-08-26T15:24:24.856Z,21.16
2022-08-26T15:26:53.231Z,22.10
2022-08-26T15:29:21.192Z,22.63
2022-08-26T15:31:48.745Z,23.23
2022-08-26T15:34:17.172Z,23.34
2022-08-26T15:36:47.045Z,24.17
2022-08-26T15:39:16.435Z,25.02
2022-08-26T15:41:43.915Z,25.61
2022-08-26T15:44:13.010Z,26.11
2022-08-26T15:46:40.773Z,27.02
2022-08-26T15:49:08.002Z,26.95
2022-08-26T15:51:45.377Z,27.44
2022-08-26T15:54:14.555Z,28.05
2022-08-26T15:56:43.486Z,28.19
2022-08-26T15:59:11.763Z,29.19
2022-08-26T16:01:39.879Z,30.29
2022-08-26T16:04:07.603Z,30.31
2022-08-26T16:06:37.732Z,31.45
2022-08-26T16:09:06.677Z,32.37
2022-08-26T16:11:36.153Z,32.68
2022-08-26T16:14:04.674Z,32.99
2022-08-26T16:16:32.275Z,32.92
2022-08-26T16:19:00.544Z,33.89
2022-08-26T16:21:30.573Z,34.08
2022-08-26T16:23:58.368Z,34.76
2022-08-26T16:26:32.747Z,35.31
2022-08-26T16:29:08.084Z,36.36
2022-08-26T16:31:37.912Z,36.55
2022-08-26T16:34:07.123Z,36.39
2022-08-26T16:36:36.197Z,37.40
2022-08-26T16:39:04.835Z,38.15
2022-08-26T16:41:32.754Z,37.66
2022-08-26T16:44:00.454Z,38.09
2022-08-26T16:46:29.017Z,38.45
2022-08-26T16:48:58.474Z,39.19
2022-08-26T16:51:28.213Z,39.00
2022-08-26T16:53:57.791Z,38.51
2022-08-26T16:56:34.124Z,39.14
2022-08-26T16:59:05.857Z,39.24
2022-08-26T17:01:33.095Z,39.38
2022-08-26T17:04:00.462Z,39.95
2022-08-26T17:06:27.707Z,39.75
2022-08-26T17:08:54.857Z,39.59
2022-08-26T17:11:22.267Z,39.75
2022-08-26T17:13:49.264Z,40.02
2022-08-26T17:16:16.620Z,40.46
2022-08-26T17:18:43.725Z,41.14
2022-08-26T17:21:13.273Z,41.67
2022-08-26T17:23:43.051Z,41.17
2022-08-26T17:26:12.363Z,41.19
2022-08-26T17:28:39.904Z,40.65
2022-08-26T17:31:09.320Z,40.88
2022-08-26T17:33:37.353Z,41.16
2022-08-26T17:36:07.800Z,41.56
2022-08-26T17:38:37.071Z,41.73
2022-08-26T17:41:10.025Z,41.95
2022-08-26T17:43:38.884Z,42.26
2022-08-26T17:46:08.862Z,42.64
2022-08-26T17:48:37.737Z,43.06
2022-08-26T17:51:15.140Z,43.59
2022-08-26T17:53:43.017Z,43.48
2022-08-26T17:56:14.065Z,43.77
2022-08-26T17:58:50.963Z,44.27
2022-08-26T18:01:25.935Z,44.61
2022-08-26T18:03:59.520Z,44.62
2022-08-26T18:06:28.968Z,44.87
2022-08-26T18:08:56.504Z,44.53
2022-08-26T18:11:24.493Z,45.16
2022-08-26T18:13:52.374Z,45.20
2022-08-26T18:16:20.709Z,45.28
2022-08-26T18:18:53.205Z,45.36
2022-08-26T18:21:24.040Z,45.71
2022-08-26T18:23:52.477Z,45.57
2022-08-26T18:26:32.906Z,46.13
2022-08-26T18:29:00.737Z,45.38
2022-08-26T18:31:28.561Z,45.71
2022-08-26T18:33:56.593Z,45.76
2022-08-26T18:36:31.056Z,46.27
2022-08-26T18:38:58.739Z,46.56
2022-08-26T18:41:29.016Z,46.67
2022-08-26T18:43:56.853Z,47.18
2022-08-26T18:46:26.928Z,47.49
2022-08-26T18:48:56.048Z,47.97
2022-08-26T18:51:30.676Z,48.25
2022-08-26T18:54:00.333Z,47.69
2022-08-26T18:56:29.436Z,48.02
2022-08-26T18:58:58.536Z,48.40
2022-08-26T19:01:27.930Z,48.29
2022-08-26T19:04:00.254Z,48.91
2022-08-26T19:06:31.549Z,48.71
2022-08-26T19:09:00.526Z,48.93
2022-08-26T19:11:31.702Z,48.51
2022-08-26T19:14:08.273Z,48.85
2022-08-26T19:16:36.507Z,48.88
2022-08-26T19:19:04.778Z,48.70
2022-08-26T19:21:34.426Z,49.24
2022-08-26T19:24:04.740Z,49.35
2022-08-26T19:26:32.952Z,49.87
2022-08-26T19:29:00.649Z,49.97
2022-08-26T19:31:28.262Z,49.53
2022-08-26T19:33:56.642Z,50.59
2022-08-26T19:36:25.589Z,49.98
2022-08-26T19:38:53.832Z,50.60
2022-08-26T19:41:37.303Z,50.61
2022-08-26T19:44:36.352Z,50.53
2022-08-26T19:47:07.946Z,51.01
2022-08-26T19:49:35.814Z,50.97
2022-08-26T19:52:03.906Z,50.67
2022-08-26T19:54:31.363Z,50.56
2022-08-26T19:56:59.331Z,50.94
2022-08-26T19:59:27.426Z,50.65
2022-08-26T20:02:01.187Z,51.24
2022-08-26T20:04:32.988Z,51.96
2022-08-26T20:07:01.844Z,51.90
2022-08-26T20:09:30.804Z,51.71
2022-08-26T20:11:58.083Z,52.08
2022-08-26T20:14:27.384Z,51.55
2022-08-26T20:16:54.879Z,51.61
2022-08-26T20:19:41.068Z,51.57
2022-08-26T20:22:08.816Z,51.47
2022-08-26T20:24:36.297Z,52.24
2022-08-26T20:27:07.666Z,51.85
2022-08-26T20:29:36.065Z,52.46
2022-08-26T20:32:06.249Z,52.57
2022-08-26T20:34:34.874Z,52.76
2022-08-26T20:37:03.960Z,54.84
2022-08-26T20:39:31.541Z,58.07
2022-08-26T20:41:59.172Z,57.77
2022-08-26T20:44:26.472Z,60.09
2022-08-26T20:46:53.624Z,60.79
2022-08-26T20:49:21.179Z,60.37
2022-08-26T20:51:51.453Z,60.88
2022-08-26T20:54:25.042Z,61.91
2022-08-26T20:56:56.361Z,62.94
2022-08-26T20:59:24.522Z,62.38
2022-08-26T21:01:52.018Z,63.14
2022-08-26T21:04:25.061Z,62.23
2022-08-26T21:06:54.620Z,63.41
2022-08-26T21:09:27.258Z,62.55
2022-08-26T21:11:55.795Z,63.39
2022-08-26T21:14:25.679Z,63.21
2022-08-26T21:16:53.975Z,63.27
2022-08-26T21:19:21.693Z,63.50
2022-08-26T21:21:48.984Z,64.11
2022-08-26T21:24:16.778Z,64.30
2022-08-26T21:26:44.516Z,65.10
2022-08-26T21:29:13.542Z,64.89
2022-08-26T21:31:46.090Z,64.87
2022-08-26T21:34:17.565Z,65.22
2022-08-26T21:36:46.994Z,64.93
2022-08-26T21:39:15.290Z,64.56
2022-08-26T21:41:44.142Z,64.34
2022-08-26T21:44:12.535Z,64.69
2022-08-26T21:46:40.704Z,64.60
2022-08-26T21:49:11.155Z,64.51
2022-08-26T21:51:46.751Z,64.42
2022-08-26T21:54:14.935Z,64.51
2022-08-26T21:56:46.677Z,64.70
2022-08-26T21:59:16.877Z,64.58
2022-08-26T22:01:44.066Z,65.11
2022-08-26T22:04:11.405Z,64.95
2022-08-26T22:06:49.748Z,64.79
2022-08-26T22:09:24.598Z,64.99
2022-08-26T22:11:52.880Z,64.66
2022-08-26T22:14:30.430Z,64.62
2022-08-26T22:16:59.139Z,65.09
2022-08-26T22:19:26.172Z,64.90
2022-08-26T22:21:55.167Z,64.82
2022-08-26T22:24:24.898Z,64.97
2022-08-26T22:26:53.027Z,65.27
2022-08-26T22:29:20.507Z,65.10
2022-08-26T22:31:47.659Z,65.15
2022-08-26T22:34:17.491Z,64.95
2022-08-26T22:36:48.258Z,65.24
2022-08-26T22:39:22.916Z,65.45
2022-08-26T22:41:51.642Z,65.48
2022-08-26T22:44:20.490Z,65.43
2022-08-26T22:46:50.568Z,65.92
2022-08-26T22:49:18.160Z,65.60
2022-08-26T22:51:46.481Z,65.76
2022-08-26T22:54:14.809Z,65.73
2022-08-26T22:56:43.897Z,65.52
2022-08-26T22:59:12.066Z,65.87
2022-08-26T23:01:43.246Z,65.83
2022-08-26T23:04:11.755Z,66.29
2022-08-26T23:06:43.343Z,66.24
2022-08-26T23:09:18.131Z,66.34
2022-08-26T23:11:47.691Z,65.94
2022-08-26T23:14:16.865Z,65.87
2022-08-26T23:16:44.130Z,66.31
2022-08-26T23:19:13.663Z,66.10
2022-08-26T23:21:41.749Z,66.59
2022-08-26T23:24:10.111Z,66.43
2022-08-26T23:26:39.069Z,66.45
2022-08-26T23:29:08.516Z,66.49
2022-08-26T23:31:38.813Z,66.09
2022-08-26T23:34:25.263Z,66.52
2022-08-26T23:36:53.850Z,66.60
2022-08-26T23:39:21.173Z,67.03
2022-08-26T23:41:48.245Z,67.14
2022-08-26T23:44:15.261Z,66.65
2022-08-26T23:46:42.316Z,67.22
2022-08-26T23:49:09.955Z,67.24
2022-08-26T23:51:57.350Z,67.64
2022-08-26T23:54:24.508Z,67.24
2022-08-26T23:56:51.473Z,67.66
2022-08-26T23:59:19.133Z,68.13
